Time,TemperatureF,DewpointF,PressureIn,WindDirection,WindDirectionDegrees,WindSpeedMPH,WindSpeedGustMPH,Humidity,HourlyPrecipIn,Conditions,Clouds,dailyrainin,SolarRadiationWatts/m^2,SoftwareType,DateUTC
2013-06-13 00:11:00,58.0,31.0,-100.00,SE,143,3.0,12.0,36,0.00,,,0.00,0.000000,,2013-06-13 06:11:00,
2013-06-13 00:22:00,58.0,31.0,-100.00,SE,143,3.0,12.0,36,0.00,,,0.00,0.000000,,2013-06-13 06:22:00,
2013-06-13 00:33:00,58.0,31.0,-100.00,SE,143,3.0,12.0,36,0.00,,,0.00,0.000000,,2013-06-13 06:33:00,
2013-06-13 00:44:00,58.0,31.0,-100.00,SE,143,3.0,12.0,36,0.00,,,0.00,0.000000,,2013-06-13 06:44:00,
2013-06-13 00:52:00,55.0,29.0,-100.00,South,174,2.0,5.0,36,0.00,,,0.00,0.000000,,2013-06-13 06:52:00,
2013-06-13 01:11:00,55.0,29.0,-100.00,South,174,2.0,5.0,36,0.00,,,0.00,0.000000,,2013-06-13 07:11:00,
2013-06-13 01:22:00,55.0,29.0,-100.00,South,174,2.0,5.0,36,0.00,,,0.00,0.000000,,2013-06-13 07:22:00,
2013-06-13 01:33:00,55.0,29.0,-100.00,South,174,2.0,5.0,36,0.00,,,0.00,0.000000,,2013-06-13 07:33:00,
2013-06-13 01:42:00,55.0,29.0,-100.00,South,174,2.0,5.0,36,0.00,,,0.00,0.000000,,2013-06-13 07:42:00,
2013-06-13 03:52:00,52.0,22.0,-100.00,SW,229,3.0,5.0,31,0.00,,,0.00,0.000000,,2013-06-13 09:52:00,
2013-06-13 04:52:00,55.0,20.0,-100.00,SW,224,5.0,8.0,25,0.00,,,0.00,0.000000,,2013-06-13 10:52:00,
2013-06-13 06:52:00,56.0,23.0,-100.00,WSW,244,6.0,12.0,27,0.00,,,0.00,59.000000,,2013-06-13 12:52:00,
2013-06-13 07:11:00,56.0,23.0,-100.00,WSW,244,6.0,12.0,27,0.00,,,0.00,59.000000,,2013-06-13 13:11:00,
2013-06-13 07:21:00,56.0,23.0,-100.00,WSW,244,6.0,12.0,27,0.00,,,0.00,59.000000,,2013-06-13 13:21:00,
2013-06-13 07:32:00,56.0,23.0,-100.00,WSW,244,6.0,12.0,27,0.00,,,0.00,59.000000,,2013-06-13 13:32:00,
2013-06-13 07:43:00,56.0,23.0,-100.00,WSW,244,6.0,12.0,27,0.00,,,0.00,59.000000,,2013-06-13 13:43:00,
2013-06-13 07:52:00,58.0,28.0,-100.00,SSW,192,5.0,9.0,31,0.00,,,0.00,192.000000,,2013-06-13 13:52:00,
2013-06-13 08:11:00,58.0,28.0,-100.00,SSW,192,5.0,9.0,31,0.00,,,0.00,192.000000,,2013-06-13 14:11:00,
2013-06-13 08:22:00,58.0,28.0,-100.00,SSW,192,5.0,9.0,31,0.00,,,0.00,192.000000,,2013-06-13 14:22:00,
2013-06-13 08:33:00,58.0,28.0,-100.00,SSW,192,5.0,9.0,31,0.00,,,0.00,192.000000,,2013-06-13 14:33:00,
2013-06-13 08:43:00,58.0,28.0,-100.00,SSW,192,5.0,9.0,31,0.00,,,0.00,192.000000,,2013-06-13 14:43:00,
2013-06-13 08:52:00,61.0,29.0,-100.00,SW,234,7.0,12.0,30,0.00,,,0.00,285.000000,,2013-06-13 14:52:00,
2013-06-13 09:12:00,61.0,29.0,-100.00,SW,234,7.0,12.0,30,0.00,,,0.00,285.000000,,2013-06-13 15:12:00,
2013-06-13 09:22:00,61.0,29.0,-100.00,SW,234,7.0,12.0,30,0.00,,,0.00,285.000000,,2013-06-13 15:22:00,
2013-06-13 09:33:00,61.0,29.0,-100.00,SW,234,7.0,12.0,30,0.00,,,0.00,285.000000,,2013-06-13 15:33:00,
2013-06-13 09:43:00,61.0,29.0,-100.00,SW,234,7.0,12.0,30,0.00,,,0.00,285.000000,,2013-06-13 15:43:00,
2013-06-13 09:52:00,65.0,32.0,-100.00,SW,223,6.0,14.0,29,0.00,,,0.00,407.000000,,2013-06-13 15:52:00,
2013-06-13 10:12:00,65.0,32.0,-100.00,SW,223,6.0,14.0,29,0.00,,,0.00,407.000000,,2013-06-13 16:12:00,
2013-06-13 10:22:00,65.0,32.0,-100.00,SW,223,6.0,14.0,29,0.00,,,0.00,407.000000,,2013-06-13 16:22:00,
2013-06-13 10:33:00,65.0,32.0,-100.00,SW,223,6.0,14.0,29,0.00,,,0.00,407.000000,,2013-06-13 16:33:00,
2013-06-13 10:43:00,65.0,32.0,-100.00,SW,223,6.0,14.0,29,0.00,,,0.00,407.000000,,2013-06-13 16:43:00,
2013-06-13 10:52:00,68.0,30.0,-100.00,SW,236,9.0,17.0,24,0.00,,,0.00,577.000000,,2013-06-13 16:52:00,
2013-06-13 11:11:00,68.0,30.0,-100.00,SW,236,9.0,17.0,24,0.00,,,0.00,577.000000,,2013-06-13 17:11:00,
2013-06-13 11:24:00,68.0,30.0,-100.00,SW,236,9.0,17.0,24,0.00,,,0.00,577.000000,,2013-06-13 17:24:00,
2013-06-13 11:33:00,68.0,30.0,-100.00,SW,236,9.0,17.0,24,0.00,,,0.00,577.000000,,2013-06-13 17:33:00,
2013-06-13 11:43:00,68.0,30.0,-100.00,SW,236,9.0,17.0,24,0.00,,,0.00,577.000000,,2013-06-13 17:43:00,
2013-06-13 11:52:00,69.0,30.0,-100.00,SW,230,9.0,19.0,23,0.00,,,0.00,724.000000,,2013-06-13 17:52:00,
2013-06-13 12:11:00,69.0,30.0,-100.00,SW,230,9.0,19.0,23,0.00,,,0.00,724.000000,,2013-06-13 18:11:00,
2013-06-13 12:22:00,69.0,30.0,-100.00,SW,230,9.0,19.0,23,0.00,,,0.00,724.000000,,2013-06-13 18:22:00,
2013-06-13 12:33:00,69.0,30.0,-100.00,SW,230,9.0,19.0,23,0.00,,,0.00,724.000000,,2013-06-13 18:33:00,
2013-06-13 12:43:00,69.0,30.0,-100.00,SW,230,9.0,19.0,23,0.00,,,0.00,724.000000,,2013-06-13 18:43:00,
2013-06-13 12:52:00,71.0,29.0,-100.00,WSW,238,11.0,27.0,21,0.00,,,0.00,812.000000,,2013-06-13 18:52:00,
2013-06-13 13:11:00,71.0,29.0,-100.00,WSW,238,11.0,27.0,21,0.00,,,0.00,812.000000,,2013-06-13 19:11:00,
2013-06-13 13:22:00,71.0,29.0,-100.00,WSW,238,11.0,27.0,21,0.00,,,0.00,812.000000,,2013-06-13 19:22:00,
2013-06-13 13:33:00,71.0,29.0,-100.00,WSW,238,11.0,27.0,21,0.00,,,0.00,812.000000,,2013-06-13 19:33:00,
2013-06-13 13:43:00,71.0,29.0,-100.00,WSW,238,11.0,27.0,21,0.00,,,0.00,812.000000,,2013-06-13 19:43:00,
2013-06-13 13:52:00,71.0,28.0,-100.00,WSW,241,12.0,30.0,20,0.00,,,0.00,621.000000,,2013-06-13 19:52:00,
2013-06-13 14:11:00,71.0,28.0,-100.00,WSW,241,12.0,30.0,20,0.00,,,0.00,621.000000,,2013-06-13 20:11:00,
2013-06-13 14:22:00,71.0,28.0,-100.00,WSW,241,12.0,30.0,20,0.00,,,0.00,621.000000,,2013-06-13 20:22:00,
2013-06-13 14:33:00,71.0,28.0,-100.00,WSW,241,12.0,30.0,20,0.00,,,0.00,621.000000,,2013-06-13 20:33:00,
2013-06-13 14:44:00,71.0,28.0,-100.00,WSW,241,12.0,30.0,20,0.00,,,0.00,621.000000,,2013-06-13 20:44:00,
2013-06-13 14:52:00,71.0,27.0,-100.00,SSW,204,15.0,26.0,19,0.00,,,0.00,623.000000,,2013-06-13 20:52:00,
2013-06-13 15:11:00,71.0,27.0,-100.00,SSW,204,15.0,26.0,19,0.00,,,0.00,623.000000,,2013-06-13 21:11:00,
2013-06-13 15:22:00,71.0,27.0,-100.00,SSW,204,15.0,26.0,19,0.00,,,0.00,623.000000,,2013-06-13 21:22:00,
2013-06-13 15:34:00,71.0,27.0,-100.00,SSW,204,15.0,26.0,19,0.00,,,0.00,623.000000,,2013-06-13 21:34:00,
2013-06-13 15:43:00,71.0,27.0,-100.00,SSW,204,15.0,26.0,19,0.00,,,0.00,623.000000,,2013-06-13 21:43:00,
2013-06-13 15:52:00,71.0,25.0,-100.00,SW,220,13.0,28.0,18,0.00,,,-99.99,576.000000,,2013-06-13 21:52:00,
2013-06-13 16:11:00,71.0,25.0,-100.00,SW,220,13.0,28.0,18,0.00,,,-99.99,576.000000,,2013-06-13 22:11:00,
2013-06-13 16:22:00,71.0,25.0,-100.00,SW,220,13.0,28.0,18,0.00,,,-99.99,576.000000,,2013-06-13 22:22:00,
2013-06-13 16:32:00,71.0,25.0,-100.00,SW,220,13.0,28.0,18,0.00,,,-99.99,576.000000,,2013-06-13 22:32:00,
2013-06-13 16:42:00,71.0,25.0,-100.00,SW,220,13.0,28.0,18,0.00,,,-99.99,576.000000,,2013-06-13 22:42:00,
2013-06-13 16:52:00,72.0,25.0,-100.00,SW,225,13.0,33.0,17,0.00,,,0.00,580.000000,,2013-06-13 22:52:00,
2013-06-13 17:11:00,72.0,25.0,-100.00,SW,225,13.0,33.0,17,0.00,,,0.00,580.000000,,2013-06-13 23:11:00,
2013-06-13 17:22:00,72.0,25.0,-100.00,SW,225,13.0,33.0,17,0.00,,,0.00,580.000000,,2013-06-13 23:22:00,
2013-06-13 17:32:00,72.0,25.0,-100.00,SW,225,13.0,33.0,17,0.00,,,0.00,580.000000,,2013-06-13 23:32:00,
2013-06-13 17:43:00,72.0,25.0,-100.00,SW,225,13.0,33.0,17,0.00,,,0.00,580.000000,,2013-06-13 23:43:00,
2013-06-13 17:52:00,74.0,23.0,-100.00,SW,220,15.0,28.0,15,0.00,,,0.00,659.000000,,2013-06-13 23:52:00,
2013-06-13 18:11:00,74.0,23.0,-100.00,SW,220,15.0,28.0,15,0.00,,,0.00,659.000000,,2013-06-14 00:11:00,
2013-06-13 18:22:00,74.0,23.0,-100.00,SW,220,15.0,28.0,15,0.00,,,0.00,659.000000,,2013-06-14 00:22:00,
2013-06-13 18:34:00,74.0,23.0,-100.00,SW,220,15.0,28.0,15,0.00,,,0.00,659.000000,,2013-06-14 00:34:00,
2013-06-13 18:43:00,74.0,23.0,-100.00,SW,220,15.0,28.0,15,0.00,,,0.00,659.000000,,2013-06-14 00:43:00,
2013-06-13 18:52:00,70.0,25.0,-100.00,SW,216,10.0,26.0,18,0.00,,,0.00,270.000000,,2013-06-14 00:52:00,
2013-06-13 19:11:00,70.0,25.0,-100.00,SW,216,10.0,26.0,18,0.00,,,0.00,270.000000,,2013-06-14 01:11:00,
2013-06-13 19:22:00,70.0,25.0,-100.00,SW,216,10.0,26.0,18,0.00,,,0.00,270.000000,,2013-06-14 01:22:00,
2013-06-13 19:32:00,70.0,25.0,-100.00,SW,216,10.0,26.0,18,0.00,,,0.00,270.000000,,2013-06-14 01:32:00,
2013-06-13 19:43:00,70.0,25.0,-100.00,SW,216,10.0,26.0,18,0.00,,,0.00,270.000000,,2013-06-14 01:43:00,
2013-06-13 19:52:00,68.0,23.0,-100.00,SW,225,9.0,19.0,18,0.00,,,0.00,99.000000,,2013-06-14 01:52:00,
2013-06-13 20:11:00,68.0,23.0,-100.00,SW,225,9.0,19.0,18,0.00,,,0.00,99.000000,,2013-06-14 02:11:00,
2013-06-13 20:22:00,68.0,23.0,-100.00,SW,225,9.0,19.0,18,0.00,,,0.00,99.000000,,2013-06-14 02:22:00,
2013-06-13 20:32:00,68.0,23.0,-100.00,SW,225,9.0,19.0,18,0.00,,,0.00,99.000000,,2013-06-14 02:32:00,
2013-06-13 20:43:00,68.0,23.0,-100.00,SW,225,9.0,19.0,18,0.00,,,0.00,99.000000,,2013-06-14 02:43:00,
2013-06-13 20:52:00,65.0,24.0,-100.00,SW,233,9.0,19.0,21,0.00,,,0.00,50.000000,,2013-06-14 02:52:00,
2013-06-13 21:12:00,65.0,24.0,-100.00,SW,233,9.0,19.0,21,0.00,,,0.00,50.000000,,2013-06-14 03:12:00,
2013-06-13 21:22:00,65.0,24.0,-100.00,SW,233,9.0,19.0,21,0.00,,,0.00,50.000000,,2013-06-14 03:22:00,
2013-06-13 21:34:00,65.0,24.0,-100.00,SW,233,9.0,19.0,21,0.00,,,0.00,50.000000,,2013-06-14 03:34:00,
2013-06-13 21:43:00,65.0,24.0,-100.00,SW,233,9.0,19.0,21,0.00,,,0.00,50.000000,,2013-06-14 03:43:00,
2013-06-13 21:52:00,62.0,25.0,-100.00,SW,224,7.0,18.0,24,0.00,,,0.00,0.000000,,2013-06-14 03:52:00,
2013-06-13 22:12:00,62.0,25.0,-100.00,SW,224,7.0,18.0,24,0.00,,,0.00,0.000000,,2013-06-14 04:12:00,
2013-06-13 22:22:00,62.0,25.0,-100.00,SW,224,7.0,18.0,24,0.00,,,0.00,0.000000,,2013-06-14 04:22:00,
2013-06-13 22:33:00,62.0,25.0,-100.00,SW,224,7.0,18.0,24,0.00,,,0.00,0.000000,,2013-06-14 04:33:00,
2013-06-13 22:43:00,62.0,25.0,-100.00,SW,224,7.0,18.0,24,0.00,,,0.00,0.000000,,2013-06-14 04:43:00,
2013-06-13 22:52:00,60.0,26.0,-100.00,SW,215,9.0,16.0,27,0.00,,,0.00,0.000000,,2013-06-14 04:52:00,
2013-06-13 23:11:00,60.0,26.0,-100.00,SW,215,9.0,16.0,27,0.00,,,0.00,0.000000,,2013-06-14 05:11:00,
2013-06-13 23:22:00,60.0,26.0,-100.00,SW,215,9.0,16.0,27,0.00,,,0.00,0.000000,,2013-06-14 05:22:00,
2013-06-13 23:34:00,60.0,26.0,-100.00,SW,215,9.0,16.0,27,0.00,,,0.00,0.000000,,2013-06-14 05:34:00,
2013-06-13 23:43:00,60.0,26.0,-100.00,SW,215,9.0,16.0,27,0.00,,,0.00,0.000000,,2013-06-14 05:43:00,
2013-06-13 23:52:00,60.0,24.0,-100.00,SW,221,8.0,20.0,25,0.00,,,0.00,0.000000,,2013-06-14 05:52:00,